Time,TemperatureF,DewpointF,PressureIn,WindDirection,WindDirectionDegrees,WindSpeedMPH,WindSpeedGustMPH,Humidity,HourlyPrecipIn,Conditions,Clouds,dailyrainin,SoftwareType,DateUTC
2013-07-24 00:06:00,82.3,54.9,29.77,WSW,237,17.0,23.0,39,0.00,,,0.00,WUHU216DAVISVP2,2013-07-24 07:06:00,
2013-07-24 00:20:00,82.3,54.8,29.77,SW,235,17.0,23.0,39,0.00,,,0.00,WUHU216DAVISVP2,2013-07-24 07:20:00,
2013-07-24 00:35:00,81.9,55.1,29.77,WSW,243,13.0,21.0,40,0.00,,,0.00,WUHU216DAVISVP2,2013-07-24 07:35:00,
2013-07-24 00:49:00,81.5,54.8,29.77,WNW,292,8.0,18.0,40,0.00,,,0.00,WUHU216DAVISVP2,2013-07-24 07:49:00,
2013-07-24 00:56:00,81.8,55.1,29.77,NNW,333,6.0,15.0,40,0.00,,,0.00,WUHU216DAVISVP2,2013-07-24 07:56:00,
2013-07-24 01:04:00,81.7,55.0,29.77,NW,304,7.0,12.0,40,0.00,,,0.00,WUHU216DAVISVP2,2013-07-24 08:04:00,
2013-07-24 01:14:00,81.3,55.3,29.77,NW,306,6.0,12.0,41,0.00,,,0.00,WUHU216DAVISVP2,2013-07-24 08:14:00,
2013-07-24 01:24:00,81.1,55.1,29.77,WSW,249,6.0,12.0,41,0.00,,,0.00,WUHU216DAVISVP2,2013-07-24 08:24:00,
2013-07-24 01:33:00,81.0,55.0,29.77,SW,234,10.0,22.0,41,0.00,,,0.00,WUHU216DAVISVP2,2013-07-24 08:33:00,
2013-07-24 01:44:00,80.8,54.9,29.77,WSW,243,8.0,22.0,41,0.00,,,0.00,WUHU216DAVISVP2,2013-07-24 08:44:00,
2013-07-24 01:57:00,80.7,54.8,29.77,SW,236,15.0,19.0,41,0.00,,,0.00,WUHU216DAVISVP2,2013-07-24 08:57:00,
2013-07-24 02:07:00,80.8,54.9,29.77,WSW,244,9.0,19.0,41,0.00,,,0.00,WUHU216DAVISVP2,2013-07-24 09:07:00,
2013-07-24 02:17:00,80.7,54.8,29.77,WSW,247,11.0,17.0,41,0.00,,,0.00,WUHU216DAVISVP2,2013-07-24 09:17:00,
2013-07-24 02:28:00,80.6,55.4,29.77,WSW,242,11.0,18.0,42,0.00,,,0.00,WUHU216DAVISVP2,2013-07-24 09:28:00,
2013-07-24 02:34:00,80.3,55.8,29.77,WSW,246,11.0,20.0,43,0.00,,,0.00,WUHU216DAVISVP2,2013-07-24 09:34:00,
2013-07-24 02:44:00,80.0,55.5,29.76,WSW,240,17.0,20.0,43,0.00,,,0.00,WUHU216DAVISVP2,2013-07-24 09:44:00,
2013-07-24 02:52:00,80.1,55.6,29.76,WSW,239,9.0,20.0,43,0.00,,,0.00,WUHU216DAVISVP2,2013-07-24 09:52:00,
2013-07-24 02:59:00,80.3,55.7,29.76,West,261,9.0,20.0,43,0.00,,,0.00,WUHU216DAVISVP2,2013-07-24 09:59:00,
2013-07-24 03:09:00,79.7,55.9,29.76,ENE,57,3.0,17.0,44,0.00,,,0.00,WUHU216DAVISVP2,2013-07-24 10:09:00,
2013-07-24 03:19:00,79.5,55.7,29.76,NNW,340,3.0,12.0,44,0.00,,,0.00,WUHU216DAVISVP2,2013-07-24 10:19:00,
2013-07-24 03:27:00,79.5,55.7,29.76,NNW,340,3.0,12.0,44,0.00,,,0.00,WUHU216DAVISVP2,2013-07-24 10:27:00,
2013-07-24 03:29:00,79.5,56.3,29.76,SSW,194,6.0,11.0,45,0.00,,,0.00,WUHU216DAVISVP2,2013-07-24 10:29:00,
2013-07-24 03:38:00,79.2,55.4,29.76,West,280,2.0,11.0,44,0.00,,,0.00,WUHU216DAVISVP2,2013-07-24 10:38:00,
2013-07-24 03:48:00,79.1,55.9,29.76,NW,304,5.0,9.0,45,0.00,,,0.00,WUHU216DAVISVP2,2013-07-24 10:48:00,
2013-07-24 03:58:00,78.9,56.4,29.76,North,9,3.0,10.0,46,0.00,,,0.00,WUHU216DAVISVP2,2013-07-24 10:58:00,
2013-07-24 04:08:00,78.6,55.5,29.76,North,360,3.0,10.0,45,0.00,,,0.00,WUHU216DAVISVP2,2013-07-24 11:08:00,
2013-07-24 04:17:00,78.6,56.1,29.76,North,355,5.0,8.0,46,0.00,,,0.00,WUHU216DAVISVP2,2013-07-24 11:17:00,
2013-07-24 04:34:00,78.0,56.1,29.76,ENE,69,5.0,7.0,47,0.00,,,0.00,WUHU216DAVISVP2,2013-07-24 11:34:00,
2013-07-24 04:50:00,78.1,56.2,29.76,NE,46,3.0,7.0,47,0.00,,,0.00,WUHU216DAVISVP2,2013-07-24 11:50:00,
2013-07-24 05:01:00,78.1,55.7,29.77,NNW,332,5.0,8.0,46,0.00,,,0.00,WUHU216DAVISVP2,2013-07-24 12:01:00,
2013-07-24 05:03:00,78.0,56.2,29.77,NNW,344,6.0,9.0,47,0.00,,,0.00,WUHU216DAVISVP2,2013-07-24 12:03:00,
2013-07-24 05:12:00,78.0,56.2,29.77,NNW,344,6.0,9.0,47,0.00,,,0.00,WUHU216DAVISVP2,2013-07-24 12:12:00,
2013-07-24 05:18:00,77.1,55.9,29.76,NNW,348,2.0,9.0,48,0.00,,,0.00,WUHU216DAVISVP2,2013-07-24 12:18:00,
2013-07-24 05:21:00,77.1,55.9,29.76,NNW,348,2.0,9.0,48,0.00,,,0.00,WUHU216DAVISVP2,2013-07-24 12:21:00,
2013-07-24 05:32:00,77.1,55.9,29.77,NNW,348,3.0,6.0,48,0.00,,,0.00,WUHU216DAVISVP2,2013-07-24 12:32:00,
2013-07-24 05:45:00,76.9,56.4,29.77,WNW,298,4.0,7.0,49,0.00,,,0.00,WUHU216DAVISVP2,2013-07-24 12:45:00,
2013-07-24 05:57:00,77.4,56.2,29.77,NW,319,6.0,9.0,48,0.00,,,0.00,WUHU216DAVISVP2,2013-07-24 12:57:00,
2013-07-24 06:09:00,77.4,56.2,29.77,West,273,2.0,9.0,48,0.00,,,0.00,WUHU216DAVISVP2,2013-07-24 13:09:00,
2013-07-24 06:15:00,76.4,57.0,29.77,NNW,342,1.0,7.0,51,0.00,,,0.00,WUHU216DAVISVP2,2013-07-24 13:15:00,
2013-07-24 06:17:00,76.4,57.0,29.77,NNW,342,1.0,7.0,51,0.00,,,0.00,WUHU216DAVISVP2,2013-07-24 13:17:00,
2013-07-24 06:25:00,76.1,56.8,29.77,NNW,345,1.0,7.0,51,0.00,,,0.00,WUHU216DAVISVP2,2013-07-24 13:25:00,
2013-07-24 06:37:00,76.3,56.4,29.76,NNW,345,0.0,6.0,50,0.00,,,0.00,WUHU216DAVISVP2,2013-07-24 13:37:00,
2013-07-24 06:41:00,77.0,56.5,29.77,NNW,345,3.0,4.0,49,0.00,,,0.00,WUHU216DAVISVP2,2013-07-24 13:41:00,
2013-07-24 06:53:00,78.5,56.0,29.76,WSW,248,0.0,7.0,46,0.00,,,0.00,WUHU216DAVISVP2,2013-07-24 13:53:00,
2013-07-24 07:03:00,79.6,56.4,29.77,WSW,248,2.0,7.0,45,0.00,,,0.00,WUHU216DAVISVP2,2013-07-24 14:03:00,
2013-07-24 07:13:00,80.3,56.4,29.77,NW,314,3.0,6.0,44,0.00,,,0.00,WUHU216DAVISVP2,2013-07-24 14:13:00,
2013-07-24 07:23:00,80.9,56.3,29.77,West,263,2.0,6.0,43,0.00,,,0.00,WUHU216DAVISVP2,2013-07-24 14:23:00,
2013-07-24 07:26:00,80.9,56.3,29.77,West,263,2.0,6.0,43,0.00,,,0.00,WUHU216DAVISVP2,2013-07-24 14:26:00,
2013-07-24 07:33:00,81.5,56.2,29.77,SE,144,0.0,9.0,42,0.00,,,0.00,WUHU216DAVISVP2,2013-07-24 14:33:00,
2013-07-24 07:43:00,82.5,56.4,29.77,SE,144,0.0,8.0,41,0.00,,,0.00,WUHU216DAVISVP2,2013-07-24 14:43:00,
2013-07-24 07:53:00,82.7,56.6,29.77,SE,137,2.0,6.0,41,0.00,,,0.00,WUHU216DAVISVP2,2013-07-24 14:53:00,
2013-07-24 08:04:00,83.4,56.5,29.77,SE,138,5.0,8.0,40,0.00,,,0.00,WUHU216DAVISVP2,2013-07-24 15:04:00,
2013-07-24 08:15:00,83.8,56.2,29.77,SSW,209,6.0,10.0,39,0.00,,,0.00,WUHU216DAVISVP2,2013-07-24 15:15:00,
2013-07-24 08:26:00,84.3,56.6,29.78,South,169,6.0,10.0,39,0.00,,,0.00,WUHU216DAVISVP2,2013-07-24 15:26:00,
2013-07-24 08:37:00,85.2,56.7,29.78,East,97,9.0,12.0,38,0.00,,,0.00,WUHU216DAVISVP2,2013-07-24 15:37:00,
2013-07-24 08:48:00,84.1,56.4,29.78,East,101,9.0,14.0,39,0.00,,,0.00,WUHU216DAVISVP2,2013-07-24 15:48:00,
2013-07-24 08:59:00,84.7,55.5,29.77,SSE,159,10.0,14.0,37,0.00,,,0.00,WUHU216DAVISVP2,2013-07-24 15:59:00,
2013-07-24 09:12:00,85.7,55.6,29.77,SSE,159,8.0,11.0,36,0.00,,,0.00,WUHU216DAVISVP2,2013-07-24 16:12:00,
2013-07-24 09:17:00,86.0,55.8,29.77,SE,134,6.0,11.0,36,0.00,,,0.00,WUHU216DAVISVP2,2013-07-24 16:17:00,
2013-07-24 09:22:00,86.7,56.5,29.77,SE,134,8.0,11.0,36,0.00,,,0.00,WUHU216DAVISVP2,2013-07-24 16:22:00,
2013-07-24 09:27:00,87.0,55.9,29.77,SSE,160,7.0,11.0,35,0.00,,,0.00,WUHU216DAVISVP2,2013-07-24 16:27:00,
2013-07-24 09:32:00,87.4,55.5,29.77,South,180,8.0,11.0,34,0.00,,,0.00,WUHU216DAVISVP2,2013-07-24 16:32:00,
2013-07-24 09:37:00,87.7,55.7,29.77,SE,146,7.0,11.0,34,0.00,,,0.00,WUHU216DAVISVP2,2013-07-24 16:37:00,
2013-07-24 09:42:00,88.2,56.2,29.77,SE,131,8.0,11.0,34,0.00,,,0.00,WUHU216DAVISVP2,2013-07-24 16:42:00,
2013-07-24 09:47:00,88.4,55.5,29.77,South,171,4.0,11.0,33,0.00,,,0.00,WUHU216DAVISVP2,2013-07-24 16:47:00,
2013-07-24 09:52:00,88.3,55.4,29.77,East,99,10.0,11.0,33,0.00,,,0.00,WUHU216DAVISVP2,2013-07-24 16:52:00,
2013-07-24 09:57:00,88.6,55.7,29.77,SSE,155,11.0,11.0,33,0.00,,,0.00,WUHU216DAVISVP2,2013-07-24 16:57:00,
2013-07-24 10:02:00,88.5,55.7,29.77,SE,142,5.0,12.0,33,0.00,,,0.00,WUHU216DAVISVP2,2013-07-24 17:02:00,
2013-07-24 10:07:00,89.0,56.2,29.77,East,88,7.0,12.0,33,0.00,,,0.00,WUHU216DAVISVP2,2013-07-24 17:07:00,
2013-07-24 10:12:00,88.9,56.1,29.77,SE,138,5.0,14.0,33,0.00,,,0.00,WUHU216DAVISVP2,2013-07-24 17:12:00,
2013-07-24 10:17:00,89.2,56.2,29.77,SSE,152,12.0,14.0,33,0.00,,,0.00,WUHU216DAVISVP2,2013-07-24 17:17:00,
2013-07-24 10:22:00,89.4,56.4,29.76,SE,142,6.0,14.0,33,0.00,,,0.00,WUHU216DAVISVP2,2013-07-24 17:22:00,
2013-07-24 10:27:00,89.8,56.8,29.77,ESE,104,7.0,14.0,33,0.00,,,0.00,WUHU216DAVISVP2,2013-07-24 17:27:00,
2013-07-24 10:32:00,89.6,56.7,29.77,SSE,149,4.0,14.0,33,0.00,,,0.00,WUHU216DAVISVP2,2013-07-24 17:32:00,
2013-07-24 10:37:00,89.7,55.9,29.77,SSE,157,10.0,14.0,32,0.00,,,0.00,WUHU216DAVISVP2,2013-07-24 17:37:00,
2013-07-24 10:42:00,89.7,56.8,29.76,SSE,167,7.0,14.0,33,0.00,,,0.00,WUHU216DAVISVP2,2013-07-24 17:42:00,
2013-07-24 10:47:00,89.9,56.0,29.76,ESE,121,7.0,14.0,32,0.00,,,0.00,WUHU216DAVISVP2,2013-07-24 17:47:00,
2013-07-24 10:52:00,90.2,56.2,29.76,SSE,151,8.0,14.0,32,0.00,,,0.00,WUHU216DAVISVP2,2013-07-24 17:52:00,
2013-07-24 10:58:00,90.5,55.6,29.76,SSE,153,8.0,13.0,31,0.00,,,0.00,WUHU216DAVISVP2,2013-07-24 17:58:00,
2013-07-24 11:03:00,90.6,56.6,29.76,SE,125,8.0,12.0,32,0.00,,,0.00,WUHU216DAVISVP2,2013-07-24 18:03:00,
2013-07-24 11:08:00,90.6,55.7,29.76,East,101,8.0,12.0,31,0.00,,,0.00,WUHU216DAVISVP2,2013-07-24 18:08:00,
2013-07-24 11:13:00,90.3,56.3,29.76,ESE,106,9.0,12.0,32,0.00,,,0.00,WUHU216DAVISVP2,2013-07-24 18:13:00,
2013-07-24 11:18:00,90.7,56.7,29.76,ESE,110,5.0,12.0,32,0.00,,,0.00,WUHU216DAVISVP2,2013-07-24 18:18:00,
2013-07-24 11:23:00,91.1,56.2,29.75,East,101,5.0,11.0,31,0.00,,,0.00,WUHU216DAVISVP2,2013-07-24 18:23:00,
2013-07-24 11:28:00,91.5,56.5,29.75,SE,146,4.0,11.0,31,0.00,,,0.00,WUHU216DAVISVP2,2013-07-24 18:28:00,
2013-07-24 11:33:00,91.8,55.9,29.75,South,171,9.0,13.0,30,0.00,,,0.00,WUHU216DAVISVP2,2013-07-24 18:33:00,
2013-07-24 11:38:00,91.5,55.6,29.75,ESE,118,2.0,13.0,30,0.00,,,0.00,WUHU216DAVISVP2,2013-07-24 18:38:00,
2013-07-24 11:43:00,92.1,56.2,29.75,SE,142,7.0,13.0,30,0.00,,,0.00,WUHU216DAVISVP2,2013-07-24 18:43:00,
2013-07-24 11:48:00,92.3,56.4,29.75,SE,139,6.0,13.0,30,0.00,,,0.00,WUHU216DAVISVP2,2013-07-24 18:48:00,
2013-07-24 11:53:00,92.4,55.5,29.75,ESE,117,4.0,13.0,29,0.00,,,0.00,WUHU216DAVISVP2,2013-07-24 18:53:00,
2013-07-24 11:58:00,92.8,55.8,29.75,East,88,6.0,12.0,29,0.00,,,0.00,WUHU216DAVISVP2,2013-07-24 18:58:00,
2013-07-24 12:03:00,93.0,56.0,29.75,SE,126,5.0,13.0,29,0.00,,,0.00,WUHU216DAVISVP2,2013-07-24 19:03:00,
2013-07-24 12:08:00,92.8,55.8,29.75,SE,146,6.0,13.0,29,0.00,,,0.00,WUHU216DAVISVP2,2013-07-24 19:08:00,
2013-07-24 12:13:00,93.1,56.0,29.75,SSE,148,6.0,13.0,29,0.00,,,0.00,WUHU216DAVISVP2,2013-07-24 19:13:00,
2013-07-24 12:18:00,93.3,55.3,29.75,ESE,110,3.0,13.0,28,0.00,,,0.00,WUHU216DAVISVP2,2013-07-24 19:18:00,
2013-07-24 12:23:00,93.5,55.4,29.75,ESE,117,4.0,11.0,28,0.00,,,0.00,WUHU216DAVISVP2,2013-07-24 19:23:00,
2013-07-24 12:28:00,93.8,55.7,29.74,SE,145,7.0,11.0,28,0.00,,,0.00,WUHU216DAVISVP2,2013-07-24 19:28:00,
2013-07-24 12:33:00,94.2,56.0,29.74,ESE,120,3.0,10.0,28,0.00,,,0.00,WUHU216DAVISVP2,2013-07-24 19:33:00,
2013-07-24 12:38:00,94.6,55.4,29.74,SSE,153,4.0,10.0,27,0.00,,,0.00,WUHU216DAVISVP2,2013-07-24 19:38:00,
2013-07-24 12:44:00,95.2,55.9,29.73,ESE,103,10.0,12.0,27,0.00,,,0.00,WUHU216DAVISVP2,2013-07-24 19:44:00,
2013-07-24 12:49:00,94.9,54.6,29.74,ESE,119,5.0,14.0,26,0.00,,,0.00,WUHU216DAVISVP2,2013-07-24 19:49:00,
2013-07-24 12:54:00,95.1,55.8,29.73,ESE,121,7.0,14.0,27,0.00,,,0.00,WUHU216DAVISVP2,2013-07-24 19:54:00,
2013-07-24 12:59:00,95.1,55.8,29.73,ESE,111,4.0,13.0,27,0.00,,,0.00,WUHU216DAVISVP2,2013-07-24 19:59:00,
2013-07-24 13:04:00,95.2,55.9,29.73,SSE,161,6.0,13.0,27,0.00,,,0.00,WUHU216DAVISVP2,2013-07-24 20:04:00,
2013-07-24 13:09:00,95.2,54.9,29.73,South,180,7.0,13.0,26,0.00,,,0.00,WUHU216DAVISVP2,2013-07-24 20:09:00,
2013-07-24 13:14:00,95.2,54.9,29.73,East,96,2.0,12.0,26,0.00,,,0.00,WUHU216DAVISVP2,2013-07-24 20:14:00,
2013-07-24 13:19:00,95.8,55.4,29.72,SE,146,4.0,12.0,26,0.00,,,0.00,WUHU216DAVISVP2,2013-07-24 20:19:00,
2013-07-24 13:24:00,96.0,54.5,29.72,ESE,111,1.0,12.0,25,0.00,,,0.00,WUHU216DAVISVP2,2013-07-24 20:24:00,
2013-07-24 13:29:00,96.9,55.2,29.72,SW,232,5.0,11.0,25,0.00,,,0.00,WUHU216DAVISVP2,2013-07-24 20:29:00,
2013-07-24 13:34:00,96.5,54.9,29.72,SSW,210,1.0,13.0,25,0.00,,,0.00,WUHU216DAVISVP2,2013-07-24 20:34:00,
2013-07-24 13:39:00,96.5,54.9,29.72,ESE,117,7.0,13.0,25,0.00,,,0.00,WUHU216DAVISVP2,2013-07-24 20:39:00,
2013-07-24 13:44:00,97.1,54.3,29.72,SE,131,6.0,13.0,24,0.00,,,0.00,WUHU216DAVISVP2,2013-07-24 20:44:00,
2013-07-24 13:49:00,96.5,54.9,29.72,East,97,3.0,13.0,25,0.00,,,0.00,WUHU216DAVISVP2,2013-07-24 20:49:00,
2013-07-24 13:54:00,96.2,54.6,29.71,East,81,2.0,13.0,25,0.00,,,0.00,WUHU216DAVISVP2,2013-07-24 20:54:00,
2013-07-24 13:59:00,96.2,54.6,29.71,East,86,6.0,13.0,25,0.00,,,0.00,WUHU216DAVISVP2,2013-07-24 20:59:00,
2013-07-24 14:04:00,96.4,54.8,29.71,SSE,153,8.0,13.0,25,0.00,,,0.00,WUHU216DAVISVP2,2013-07-24 21:04:00,
2013-07-24 14:09:00,96.9,54.1,29.71,SSW,209,7.0,13.0,24,0.00,,,0.00,WUHU216DAVISVP2,2013-07-24 21:09:00,
2013-07-24 14:14:00,97.1,54.3,29.71,SE,138,9.0,14.0,24,0.00,,,0.00,WUHU216DAVISVP2,2013-07-24 21:14:00,
2013-07-24 14:19:00,97.6,53.6,29.70,SE,146,13.0,15.0,23,0.00,,,0.00,WUHU216DAVISVP2,2013-07-24 21:19:00,
2013-07-24 14:24:00,97.6,53.6,29.70,SSE,149,8.0,15.0,23,0.00,,,0.00,WUHU216DAVISVP2,2013-07-24 21:24:00,
2013-07-24 14:29:00,97.8,53.7,29.70,SE,131,3.0,15.0,23,0.00,,,0.00,WUHU216DAVISVP2,2013-07-24 21:29:00,
2013-07-24 14:34:00,98.2,54.1,29.70,SE,138,1.0,15.0,23,0.00,,,0.00,WUHU216DAVISVP2,2013-07-24 21:34:00,
2013-07-24 14:39:00,98.5,53.1,29.70,SSE,157,8.0,15.0,22,0.00,,,0.00,WUHU216DAVISVP2,2013-07-24 21:39:00,
2013-07-24 14:45:00,98.6,51.9,29.69,SSW,205,6.0,11.0,21,0.00,,,0.00,WUHU216DAVISVP2,2013-07-24 21:45:00,
2013-07-24 14:50:00,98.8,52.1,29.69,SW,224,11.0,13.0,21,0.00,,,0.00,WUHU216DAVISVP2,2013-07-24 21:50:00,
2013-07-24 14:55:00,98.8,49.4,29.69,SW,221,6.0,17.0,19,0.00,,,0.00,WUHU216DAVISVP2,2013-07-24 21:55:00,
2013-07-24 15:00:00,98.9,49.5,29.69,SSE,166,7.0,17.0,19,0.00,,,0.00,WUHU216DAVISVP2,2013-07-24 22:00:00,
2013-07-24 15:05:00,99.0,48.1,29.69,SSW,200,14.0,19.0,18,0.00,,,0.00,WUHU216DAVISVP2,2013-07-24 22:05:00,
2013-07-24 15:10:00,99.1,46.7,29.69,WSW,238,7.0,19.0,17,0.00,,,0.00,WUHU216DAVISVP2,2013-07-24 22:10:00,
2013-07-24 15:15:00,99.1,46.7,29.68,South,188,12.0,19.0,17,0.00,,,0.00,WUHU216DAVISVP2,2013-07-24 22:15:00,
2013-07-24 15:20:00,99.2,45.1,29.68,WSW,240,6.0,19.0,16,0.00,,,0.00,WUHU216DAVISVP2,2013-07-24 22:20:00,
2013-07-24 15:25:00,99.6,45.4,29.68,SSW,207,13.0,21.0,16,0.00,,,0.00,WUHU216DAVISVP2,2013-07-24 22:25:00,
2013-07-24 15:30:00,99.3,45.2,29.68,WSW,241,8.0,21.0,16,0.00,,,0.00,WUHU216DAVISVP2,2013-07-24 22:30:00,
2013-07-24 15:35:00,98.7,44.7,29.67,SSW,196,13.0,21.0,16,0.00,,,0.00,WUHU216DAVISVP2,2013-07-24 22:35:00,
2013-07-24 15:40:00,98.8,46.4,29.68,SSW,210,11.0,21.0,17,0.00,,,0.00,WUHU216DAVISVP2,2013-07-24 22:40:00,
2013-07-24 15:45:00,98.9,44.9,29.68,WSW,238,15.0,21.0,16,0.00,,,0.00,WUHU216DAVISVP2,2013-07-24 22:45:00,
2013-07-24 15:50:00,99.1,46.6,29.68,SW,214,18.0,21.0,17,0.00,,,0.00,WUHU216DAVISVP2,2013-07-24 22:50:00,
2013-07-24 15:55:00,98.2,44.3,29.67,SW,228,19.0,22.0,16,0.00,,,0.00,WUHU216DAVISVP2,2013-07-24 22:55:00,
2013-07-24 16:00:00,98.5,46.2,29.67,WSW,242,12.0,22.0,17,0.00,,,0.00,WUHU216DAVISVP2,2013-07-24 23:00:00,
2013-07-24 16:05:00,98.5,46.2,29.67,WSW,249,13.0,22.0,17,0.00,,,0.00,WUHU216DAVISVP2,2013-07-24 23:05:00,
2013-07-24 16:10:00,98.7,47.9,29.67,SW,217,13.0,22.0,18,0.00,,,0.00,WUHU216DAVISVP2,2013-07-24 23:10:00,
2013-07-24 16:15:00,98.0,48.8,29.67,WSW,252,19.0,21.0,19,0.00,,,0.00,WUHU216DAVISVP2,2013-07-24 23:15:00,
2013-07-24 16:21:00,97.4,46.8,29.67,WSW,252,20.0,23.0,18,0.00,,,0.00,WUHU216DAVISVP2,2013-07-24 23:21:00,
2013-07-24 16:26:00,97.8,48.6,29.67,SW,221,17.0,23.0,19,0.00,,,0.00,WUHU216DAVISVP2,2013-07-24 23:26:00,
2013-07-24 16:31:00,97.1,48.0,29.67,SW,227,13.0,23.0,19,0.00,,,0.00,WUHU216DAVISVP2,2013-07-24 23:31:00,
2013-07-24 16:36:00,97.7,47.1,29.67,WSW,246,18.0,22.0,18,0.00,,,0.00,WUHU216DAVISVP2,2013-07-24 23:36:00,
2013-07-24 16:41:00,97.5,46.9,29.67,SW,231,20.0,24.0,18,0.00,,,0.00,WUHU216DAVISVP2,2013-07-24 23:41:00,
2013-07-24 16:46:00,96.8,49.1,29.67,SW,221,17.0,24.0,20,0.00,,,0.00,WUHU216DAVISVP2,2013-07-24 23:46:00,
2013-07-24 16:51:00,96.4,48.8,29.66,SSW,204,12.0,25.0,20,0.00,,,0.00,WUHU216DAVISVP2,2013-07-24 23:51:00,
2013-07-24 16:56:00,96.1,48.6,29.66,SW,219,19.0,25.0,20,0.00,,,0.00,WUHU216DAVISVP2,2013-07-24 23:56:00,
2013-07-24 17:01:00,95.9,49.7,29.66,SW,221,17.0,25.0,21,0.00,,,0.00,WUHU216DAVISVP2,2013-07-25 00:01:00,
2013-07-24 17:06:00,95.7,49.5,29.66,SSW,210,12.0,25.0,21,0.00,,,0.00,WUHU216DAVISVP2,2013-07-25 00:06:00,
2013-07-24 17:11:00,95.5,49.4,29.66,SW,230,22.0,25.0,21,0.00,,,0.00,WUHU216DAVISVP2,2013-07-25 00:11:00,
2013-07-24 17:16:00,95.4,49.3,29.66,SW,225,20.0,25.0,21,0.00,,,0.00,WUHU216DAVISVP2,2013-07-25 00:16:00,
2013-07-24 17:21:00,95.6,50.7,29.66,WSW,238,13.0,27.0,22,0.00,,,0.00,WUHU216DAVISVP2,2013-07-25 00:21:00,
2013-07-24 17:27:00,95.7,49.5,29.66,SW,233,11.0,27.0,21,0.00,,,0.00,WUHU216DAVISVP2,2013-07-25 00:27:00,
2013-07-24 17:32:00,95.5,49.4,29.66,SW,223,20.0,27.0,21,0.00,,,0.00,WUHU216DAVISVP2,2013-07-25 00:32:00,
2013-07-24 17:37:00,94.7,49.9,29.66,SW,226,11.0,23.0,22,0.00,,,0.00,WUHU216DAVISVP2,2013-07-25 00:37:00,
2013-07-24 17:42:00,94.7,49.9,29.66,SSW,211,21.0,23.0,22,0.00,,,0.00,WUHU216DAVISVP2,2013-07-25 00:42:00,
2013-07-24 17:47:00,94.3,49.6,29.66,SW,218,18.0,26.0,22,0.00,,,0.00,WUHU216DAVISVP2,2013-07-25 00:47:00,
2013-07-24 17:52:00,94.0,49.4,29.66,SW,220,23.0,27.0,22,0.00,,,0.00,WUHU216DAVISVP2,2013-07-25 00:52:00,
2013-07-24 17:57:00,94.0,48.1,29.66,SSW,213,14.0,27.0,21,0.00,,,0.00,WUHU216DAVISVP2,2013-07-25 00:57:00,
2013-07-24 18:02:00,93.5,48.9,29.66,SSW,208,22.0,29.0,22,0.00,,,0.00,WUHU216DAVISVP2,2013-07-25 01:02:00,
2013-07-24 18:07:00,92.9,48.4,29.66,SSW,205,20.0,29.0,22,0.00,,,0.00,WUHU216DAVISVP2,2013-07-25 01:07:00,
2013-07-24 18:12:00,92.8,48.4,29.66,SW,224,15.0,29.0,22,0.00,,,0.00,WUHU216DAVISVP2,2013-07-25 01:12:00,
2013-07-24 18:17:00,92.6,48.2,29.66,SW,227,20.0,29.0,22,0.00,,,0.00,WUHU216DAVISVP2,2013-07-25 01:17:00,
2013-07-24 18:22:00,92.6,48.2,29.66,SW,227,16.0,27.0,22,0.00,,,0.00,WUHU216DAVISVP2,2013-07-25 01:22:00,
2013-07-24 18:27:00,92.4,48.0,29.66,WSW,242,24.0,27.0,22,0.00,,,0.00,WUHU216DAVISVP2,2013-07-25 01:27:00,
2013-07-24 18:32:00,92.0,47.7,29.67,SW,235,17.0,27.0,22,0.00,,,0.00,WUHU216DAVISVP2,2013-07-25 01:32:00,
2013-07-24 18:37:00,91.8,47.5,29.67,SSW,213,18.0,30.0,22,0.00,,,0.00,WUHU216DAVISVP2,2013-07-25 01:37:00,
2013-07-24 18:42:00,91.4,48.4,29.67,SW,234,18.0,30.0,23,0.00,,,0.00,WUHU216DAVISVP2,2013-07-25 01:42:00,
2013-07-24 18:47:00,91.2,48.2,29.67,SSW,210,20.0,30.0,23,0.00,,,0.00,WUHU216DAVISVP2,2013-07-25 01:47:00,
2013-07-24 18:52:00,91.0,48.0,29.67,SW,223,22.0,30.0,23,0.00,,,0.00,WUHU216DAVISVP2,2013-07-25 01:52:00,
2013-07-24 18:57:00,90.8,47.9,29.67,SW,222,18.0,27.0,23,0.00,,,0.00,WUHU216DAVISVP2,2013-07-25 01:57:00,
2013-07-24 19:02:00,90.4,47.5,29.67,SW,215,18.0,27.0,23,0.00,,,0.00,WUHU216DAVISVP2,2013-07-25 02:02:00,
2013-07-24 19:07:00,90.2,47.4,29.67,SW,236,18.0,27.0,23,0.00,,,0.00,WUHU216DAVISVP2,2013-07-25 02:07:00,
2013-07-24 19:12:00,90.0,48.3,29.67,SSW,211,15.0,26.0,24,0.00,,,0.00,WUHU216DAVISVP2,2013-07-25 02:12:00,
2013-07-24 19:17:00,89.5,47.9,29.67,SW,234,19.0,27.0,24,0.00,,,0.00,WUHU216DAVISVP2,2013-07-25 02:17:00,
2013-07-24 19:23:00,89.3,47.7,29.67,WSW,238,16.0,27.0,24,0.00,,,0.00,WUHU216DAVISVP2,2013-07-25 02:23:00,
2013-07-24 19:28:00,89.2,47.6,29.67,WSW,248,19.0,26.0,24,0.00,,,0.00,WUHU216DAVISVP2,2013-07-25 02:28:00,
2013-07-24 19:33:00,88.9,47.4,29.67,WSW,237,24.0,26.0,24,0.00,,,0.00,WUHU216DAVISVP2,2013-07-25 02:33:00,
2013-07-24 19:38:00,88.7,47.2,29.67,SW,234,14.0,26.0,24,0.00,,,0.00,WUHU216DAVISVP2,2013-07-25 02:38:00,
2013-07-24 19:43:00,88.4,47.0,29.67,WSW,237,26.0,26.0,24,0.00,,,0.00,WUHU216DAVISVP2,2013-07-25 02:43:00,
2013-07-24 19:48:00,88.1,47.9,29.67,WSW,241,17.0,27.0,25,0.00,,,0.00,WUHU216DAVISVP2,2013-07-25 02:48:00,
2013-07-24 19:53:00,87.9,47.7,29.67,SW,221,18.0,27.0,25,0.00,,,0.00,WUHU216DAVISVP2,2013-07-25 02:53:00,
2013-07-24 19:58:00,87.6,47.4,29.67,SW,229,14.0,29.0,25,0.00,,,0.00,WUHU216DAVISVP2,2013-07-25 02:58:00,
2013-07-24 20:03:00,87.5,47.3,29.68,SW,231,14.0,29.0,25,0.00,,,0.00,WUHU216DAVISVP2,2013-07-25 03:03:00,
2013-07-24 20:08:00,87.3,48.2,29.68,SW,224,21.0,29.0,26,0.00,,,0.00,WUHU216DAVISVP2,2013-07-25 03:08:00,
2013-07-24 20:13:00,87.2,48.1,29.68,WSW,237,19.0,29.0,26,0.00,,,0.00,WUHU216DAVISVP2,2013-07-25 03:13:00,
2013-07-24 20:18:00,87.0,47.9,29.68,SW,235,19.0,28.0,26,0.00,,,0.00,WUHU216DAVISVP2,2013-07-25 03:18:00,
2013-07-24 20:23:00,86.9,47.8,29.68,SW,217,20.0,28.0,26,0.00,,,0.00,WUHU216DAVISVP2,2013-07-25 03:23:00,
2013-07-24 20:28:00,86.8,47.7,29.68,SW,234,18.0,28.0,26,0.00,,,0.00,WUHU216DAVISVP2,2013-07-25 03:28:00,
2013-07-24 20:33:00,86.7,47.6,29.68,SW,232,20.0,28.0,26,0.00,,,0.00,WUHU216DAVISVP2,2013-07-25 03:33:00,
2013-07-24 20:38:00,86.3,48.3,29.68,SW,232,21.0,27.0,27,0.00,,,0.00,WUHU216DAVISVP2,2013-07-25 03:38:00,
2013-07-24 20:44:00,86.1,48.2,29.68,SW,227,12.0,27.0,27,0.00,,,0.00,WUHU216DAVISVP2,2013-07-25 03:44:00,
2013-07-24 20:49:00,86.2,48.3,29.68,SW,234,18.0,29.0,27,0.00,,,0.00,WUHU216DAVISVP2,2013-07-25 03:49:00,
2013-07-24 20:54:00,86.1,48.2,29.68,SW,229,17.0,29.0,27,0.00,,,0.00,WUHU216DAVISVP2,2013-07-25 03:54:00,
2013-07-24 20:59:00,86.1,48.2,29.68,SW,234,19.0,29.0,27,0.00,,,0.00,WUHU216DAVISVP2,2013-07-25 03:59:00,
2013-07-24 21:04:00,86.5,48.5,29.68,SW,225,18.0,29.0,27,0.00,,,0.00,WUHU216DAVISVP2,2013-07-25 04:04:00,
2013-07-24 21:09:00,88.1,47.8,29.68,West,273,17.0,27.0,25,0.00,,,0.00,WUHU216DAVISVP2,2013-07-25 04:09:00,
2013-07-24 21:14:00,87.9,47.6,29.68,West,271,14.0,27.0,25,0.00,,,0.00,WUHU216DAVISVP2,2013-07-25 04:14:00,
2013-07-24 21:19:00,88.6,48.2,29.68,WNW,298,8.0,27.0,25,0.00,,,0.00,WUHU216DAVISVP2,2013-07-25 04:19:00,
2013-07-24 21:24:00,88.6,48.2,29.68,West,262,25.0,25.0,25,0.00,,,0.00,WUHU216DAVISVP2,2013-07-25 04:24:00,
2013-07-24 21:29:00,88.4,48.0,29.69,WSW,242,9.0,25.0,25,0.00,,,0.00,WUHU216DAVISVP2,2013-07-25 04:29:00,
2013-07-24 21:34:00,88.7,48.3,29.68,WSW,251,8.0,28.0,25,0.00,,,0.00,WUHU216DAVISVP2,2013-07-25 04:34:00,
2013-07-24 21:39:00,88.3,48.0,29.69,SW,236,7.0,28.0,25,0.00,,,0.00,WUHU216DAVISVP2,2013-07-25 04:39:00,
2013-07-24 21:44:00,88.3,49.0,29.69,WNW,298,12.0,28.0,26,0.00,,,0.00,WUHU216DAVISVP2,2013-07-25 04:44:00,
2013-07-24 21:49:00,88.4,48.0,29.69,WSW,257,20.0,28.0,25,0.00,,,0.00,WUHU216DAVISVP2,2013-07-25 04:49:00,
2013-07-24 21:54:00,88.1,48.8,29.69,WSW,253,13.0,24.0,26,0.00,,,0.00,WUHU216DAVISVP2,2013-07-25 04:54:00,
2013-07-24 21:59:00,87.0,48.9,29.69,WSW,242,19.0,22.0,27,0.00,,,0.00,WUHU216DAVISVP2,2013-07-25 04:59:00,
2013-07-24 22:04:00,86.8,48.7,29.69,West,267,7.0,22.0,27,0.00,,,0.00,WUHU216DAVISVP2,2013-07-25 05:04:00,
2013-07-24 22:09:00,87.0,48.9,29.69,WSW,240,9.0,21.0,27,0.00,,,0.00,WUHU216DAVISVP2,2013-07-25 05:09:00,
2013-07-24 22:14:00,86.9,49.8,29.69,WSW,250,13.0,21.0,28,0.00,,,0.00,WUHU216DAVISVP2,2013-07-25 05:14:00,
2013-07-24 22:20:00,86.6,49.5,29.69,WSW,240,14.0,21.0,28,0.00,,,0.00,WUHU216DAVISVP2,2013-07-25 05:20:00,
2013-07-24 22:25:00,86.7,49.6,29.69,SW,234,13.0,20.0,28,0.00,,,0.00,WUHU216DAVISVP2,2013-07-25 05:25:00,
2013-07-24 22:30:00,86.5,49.4,29.69,West,269,5.0,20.0,28,0.00,,,0.00,WUHU216DAVISVP2,2013-07-25 05:30:00,
2013-07-24 22:35:00,87.3,49.1,29.69,West,268,10.0,20.0,27,0.00,,,0.00,WUHU216DAVISVP2,2013-07-25 05:35:00,
2013-07-24 22:40:00,87.9,49.6,29.69,WSW,244,6.0,21.0,27,0.00,,,0.00,WUHU216DAVISVP2,2013-07-25 05:40:00,
2013-07-24 22:45:00,87.8,49.6,29.70,West,263,3.0,21.0,27,0.00,,,0.00,WUHU216DAVISVP2,2013-07-25 05:45:00,
2013-07-24 22:50:00,87.7,49.5,29.69,SW,226,17.0,23.0,27,0.00,,,0.00,WUHU216DAVISVP2,2013-07-25 05:50:00,
2013-07-24 22:55:00,87.6,49.4,29.69,SW,219,8.0,23.0,27,0.00,,,0.00,WUHU216DAVISVP2,2013-07-25 05:55:00,
2013-07-24 23:00:00,86.4,49.3,29.69,SW,220,6.0,23.0,28,0.00,,,0.00,WUHU216DAVISVP2,2013-07-25 06:00:00,
2013-07-24 23:05:00,85.8,49.8,29.70,SW,236,13.0,23.0,29,0.00,,,0.00,WUHU216DAVISVP2,2013-07-25 06:05:00,
2013-07-24 23:10:00,85.5,49.5,29.70,SW,219,7.0,21.0,29,0.00,,,0.00,WUHU216DAVISVP2,2013-07-25 06:10:00,
2013-07-24 23:15:00,85.9,49.8,29.70,West,281,10.0,20.0,29,0.00,,,0.00,WUHU216DAVISVP2,2013-07-25 06:15:00,
2013-07-24 23:20:00,85.7,49.7,29.70,SW,223,11.0,20.0,29,0.00,,,0.00,WUHU216DAVISVP2,2013-07-25 06:20:00,
2013-07-24 23:25:00,85.6,49.6,29.70,West,262,12.0,20.0,29,0.00,,,0.00,WUHU216DAVISVP2,2013-07-25 06:25:00,
2013-07-24 23:30:00,85.4,49.4,29.70,WSW,250,11.0,20.0,29,0.00,,,0.00,WUHU216DAVISVP2,2013-07-25 06:30:00,
2013-07-24 23:35:00,85.3,49.3,29.70,WSW,238,18.0,20.0,29,0.00,,,0.00,WUHU216DAVISVP2,2013-07-25 06:35:00,
2013-07-24 23:40:00,85.2,49.4,29.70,WSW,243,17.0,20.0,29,0.00,,,0.00,WUHU216DAVISVP2,2013-07-25 06:40:00,
2013-07-24 23:45:00,85.6,49.7,29.70,West,261,9.0,20.0,29,0.00,,,0.00,WUHU216DAVISVP2,2013-07-25 06:45:00,
2013-07-24 23:50:00,85.6,49.7,29.70,WSW,251,11.0,20.0,29,0.00,,,0.00,WUHU216DAVISVP2,2013-07-25 06:50:00,
2013-07-24 23:55:00,85.2,49.4,29.70,West,261,8.0,19.0,29,0.00,,,0.00,WUHU216DAVISVP2,2013-07-25 06:55:00,